Startpagina
METAR-TAF:

METAR-TAF

Vliegvelden :

Wittmund, Duitsland

breedte: 53-33N, lengte: 007-40E, hoogte: 8 m

Actueel weer

Dit bericht is 52 minuten geleden gemaakt, om 05:20 UTC
Wind 7 kt uit het westnoordwesten
Temperatuur 3°C
Vochtigheid 70%
Druk 1025 hPa
Zicht 10 km of meer

METAR: ETNT 070520Z AUTO 29007KT 9999 // ////// 03/M02 Q1025 ///

Tijdstip: 07:12 (06:12 UTC)


TAF: ontbreekt

Waarnemingen en weersverwachtingen van meer dan 4000 vliegvelden (METAR en TAF).

De beschikbare stations zijn de gele en rode punten op de kaart.

Ga met uw muis naar het station om de naam te zien.

Klik dan om waarnemingen en weersverwachtingen te zien.

kaart wijzigen: klik op de groene knoppen met een zwart kruis om in te zoomen, op de groene knop met een streepje om uit te zoomen of op de groene pijlen voor aangrenzende kaarten.


METAR-TAF: